| Date | Time | Temp. (oF) | Dew Point (oF) | Rel. Hum. (%) | Press. (in.) | Wind Dir. | Wind Speed (mph) | Hourly Rainfall (in.) |
|
|---|---|---|---|---|---|---|---|---|---|
| 1 | 07/09 | 00:00 | 77 | 71 | 83 | 29.86 | WSW | 2 | 0.00 |
| 2 | 07/08 | 23:00 | 79 | 70 | 76 | 29.87 | SSW | 4 | 0.00 |
| 3 | 07/08 | 22:00 | 80 | 70 | 72 | 29.87 | SSW | 2 | 0.00 |
| 4 | 07/08 | 21:00 | 82 | 72 | 72 | 29.86 | SSW | 6 | 0.00 |
| 5 | 07/08 | 20:00 | 83 | 74 | 75 | 29.86 | SSW | 6 | 0.00 |
| 6 | 07/08 | 19:00 | 85 | 75 | 73 | 29.83 | SSW | 4 | 0.00 |
| 7 | 07/08 | 18:00 | 86 | 73 | 67 | 29.83 | SSW | 5 | 0.00 |
| 8 | 07/08 | 17:00 | 85 | 69 | 61 | 29.85 | SE | 6 | 0.00 |
| 9 | miss | miss | miss | miss | miss | miss | miss | miss | |
| 10 | 07/08 | 09:52 | 80 | 70 | 74 | 29.98 | SW | 4 | 0.00 |
| 11 | miss | miss | miss | miss | miss | miss | miss | miss | |
| 12 | 07/08 | 09:52 | 80 | 70 | 74 | 29.98 | SW | 4 | 0.00 |
| 13 | miss | miss | miss | miss | miss | miss | miss | miss | |
| 14 | 07/08 | 09:52 | 80 | 70 | 74 | 29.98 | SW | 4 | 0.00 |
| 15 | miss | miss | miss | miss | miss | miss | miss | miss | |
| 16 | 07/08 | 09:00 | 76 | 68 | 79 | 30.00 | SSW | 2 | 0.00 |
| 17 | 07/08 | 08:00 | 71 | 70 | 98 | 30.01 | SSW | 2 | 0.00 |
| 18 | 07/08 | 07:00 | 68 | 68 | 100 | 30.01 | SSW | 0 | 0.00 |
| 19 | 07/08 | 06:00 | 67 | 67 | 100 | 30.02 | SSW | 0 | 0.00 |
| 20 | 07/08 | 05:00 | 67 | 67 | 100 | 30.01 | SSW | 0 | 0.00 |
| 21 | 07/08 | 04:00 | 68 | 68 | 100 | 30.00 | SSW | 0 | 0.00 |
| 22 | 07/08 | 03:00 | 69 | 68 | 100 | 29.99 | WSW | 0 | 0.00 |
| 23 | 07/08 | 02:00 | 70 | 69 | 99 | 29.99 | NE | 0 | 0.00 |
| 24 | 07/08 | 01:00 | 71 | 70 | 97 | 30.01 | NNW | 2 | 0.00 |